Matthew James — WDD4491 — position and weather

sailwx.info

Track history (hours):
 
Tides and Currents Weather Stations Pressure Air Temp Water Temp Dewpoint Dewpoint Depression Visibility Wind Speed Wind Dir Waves Ship Positions

Matthew James

Owner: LeBeouf Bros. Towing, LLC, Houma, LA. More information available from US FCC via Universal Licensing System and Coast Guard Vessel Documentation Center.

Last reported at 2018-May-23 11:17 UTC. Time now 2018-May-23 15:12 UTC.
Position N 29°50' W 092°20'.

Length 24 m; draft 3 m.

Type: Tug. MMSI: 367145380.

Date/timePositionNaut miles runAvg speedWind from/ knotsBaromVisibWave heightAir tempDewpointWater temp
2018-May-23 11:17N 29°50' W 092°20'1 4.1
2018-May-23 11:00N 29°50' W 092°18'3 6.0
2018-May-23 10:30N 29°48' W 092°16'3 5.8
2018-May-23 10:00N 29°47' W 092°12'0 0.7
2018-May-23 09:30N 29°47' W 092°12'1 1.4
2018-May-23 09:00N 29°47' W 092°11'2 3.6
2018-May-23 08:30N 29°47' W 092°09'4 6.8
2018-May-23 07:56N 29°48' W 092°05'3 6.7
2018-May-23 07:29N 29°49' W 092°02'3 6.9
2018-May-23 07:00N 29°50' W 091°58'  
2018-May-17 11:32N 30°31' W 091°15'0 0.1
2018-May-17 11:27N 30°31' W 091°15'0 0.0
2018-May-17 09:25N 30°31' W 091°15'  
2018-May-14 18:21N 29°56' W 093°07'2 4.6
2018-May-14 18:00N 29°56' W 093°09'4 4.3
2018-May-14 17:06N 29°59' W 093°12'0 4.7
2018-May-14 17:00N 29°59' W 093°13'2 4.2
2018-May-14 16:30N 30°01' W 093°14'2 4.1
2018-May-14 16:00N 30°02' W 093°16'2 4.3
2018-May-14 15:30N 30°04' W 093°16'1 2.9
2018-May-14 15:00N 30°05' W 093°18'0 0.7
2018-May-14 14:30N 30°06' W 093°18'1 1.8
2018-May-14 14:00N 30°06' W 093°19'0 0.3
2018-May-14 13:30N 30°06' W 093°19'0 0.0
2018-May-14 12:55N 30°06' W 093°19'0 0.0
2018-May-14 12:29N 30°06' W 093°19'0 0.0
2018-May-14 12:00N 30°06' W 093°19'0 0.0
2018-May-14 11:30N 30°06' W 093°19'0 0.0
2018-May-14 11:00N 30°06' W 093°19'0 0.0
2018-May-14 10:27N 30°06' W 093°19'0 0.0
2018-May-14 10:00N 30°06' W 093°19'0 0.0
2018-May-14 09:30N 30°06' W 093°19'0 0.0
2018-May-14 09:00N 30°06' W 093°19'0 0.0
2018-May-14 08:30N 30°06' W 093°19'0 0.0
2018-May-14 08:00N 30°06' W 093°19'0 0.0
2018-May-14 07:30N 30°06' W 093°19'0 0.0
2018-May-14 07:00N 30°06' W 093°19'0 0.0
2018-May-14 06:30N 30°06' W 093°19'1 2.1
2018-May-14 06:00N 30°06' W 093°19'2 3.8
2018-May-14 05:30N 30°04' W 093°21'2 3.7
2018-May-14 05:00N 30°04' W 093°23'2 4.7
2018-May-14 04:30N 30°04' W 093°26'0 0.0
2018-May-14 04:00N 30°04' W 093°26'2 3.8
2018-May-14 03:30N 30°04' W 093°28'2 4.7
2018-May-14 03:00N 30°04' W 093°30'3 5.2
2018-May-14 02:30N 30°04' W 093°33'3 5.2
2018-May-14 02:00N 30°04' W 093°36'3 5.5
2018-May-14 01:30N 30°04' W 093°40'3 5.5
2018-May-14 01:00N 30°03' W 093°43'2 4.8
2018-May-14 00:30N 30°01' W 093°44'3 5.1
2018-May-14 00:00N 29°60' W 093°47'3 6.5
2018-May-13 23:30N 29°59' W 093°50'3 5.6
2018-May-13 23:00N 29°56' W 093°52'3 6.7
2018-May-13 22:30N 29°54' W 093°54'3 5.9
2018-May-13 22:00N 29°51' W 093°57'3 5.9
2018-May-13 21:30N 29°49' W 093°59'3 5.0
2018-May-13 21:00N 29°47' W 094°01'3 5.1
2018-May-13 20:30N 29°46' W 094°03'3 5.1
2018-May-13 20:00N 29°44' W 094°05'3 5.2
2018-May-13 19:30N 29°43' W 094°08'3 5.1
2018-May-13 19:00N 29°41' W 094°10'3 5.2
2018-May-13 18:29N 29°40' W 094°13'3 5.3
2018-May-13 18:00N 29°39' W 094°16'3 5.1
2018-May-13 17:30N 29°38' W 094°19'3 5.3
2018-May-13 17:00N 29°37' W 094°21'2 4.7
2018-May-13 16:30N 29°36' W 094°24'1 2.5
2018-May-13 15:57N 29°35' W 094°25'2 3.0
2018-May-13 15:26N 29°34' W 094°26'2 4.1
2018-May-13 15:00N 29°33' W 094°28'2 4.6
2018-May-13 14:30N 29°31' W 094°30'3 5.5
2018-May-13 13:58N 29°30' W 094°33'3 5.3
2018-May-13 13:19N 29°29' W 094°37'2 5.3
2018-May-13 12:55N 29°28' W 094°39'  
Track history (hours):
 
Tides and Currents Weather Stations Pressure Air Temp Water Temp Dewpoint Dewpoint Depression Visibility Wind Speed Wind Dir Waves Ship Positions

Matthew James

Owner: LeBeouf Bros. Towing, LLC, Houma, LA. More information available from US FCC via Universal Licensing System and Coast Guard Vessel Documentation Center.

Last reported at 2018-May-23 11:17 UTC. Time now 2018-May-23 15:12 UTC.
Position N 29°50' W 092°20'.

Length 24 m; draft 3 m.

Type: Tug. MMSI: 367145380.

Date/timePositionNaut miles runAvg speedWind from/ knotsBaromVisibWave heightAir tempDewpointWater temp
2018-May-23 11:17N 29°50' W 092°20'1 4.1
2018-May-23 11:00N 29°50' W 092°18'3 6.0
2018-May-23 10:30N 29°48' W 092°16'3 5.8
2018-May-23 10:00N 29°47' W 092°12'0 0.7
2018-May-23 09:30N 29°47' W 092°12'1 1.4
2018-May-23 09:00N 29°47' W 092°11'2 3.6
2018-May-23 08:30N 29°47' W 092°09'4 6.8
2018-May-23 07:56N 29°48' W 092°05'3 6.7
2018-May-23 07:29N 29°49' W 092°02'3 6.9
2018-May-23 07:00N 29°50' W 091°58'  
2018-May-17 11:32N 30°31' W 091°15'0 0.1
2018-May-17 11:27N 30°31' W 091°15'0 0.0
2018-May-17 09:25N 30°31' W 091°15'  
2018-May-14 18:21N 29°56' W 093°07'2 4.6
2018-May-14 18:00N 29°56' W 093°09'4 4.3
2018-May-14 17:06N 29°59' W 093°12'0 4.7
2018-May-14 17:00N 29°59' W 093°13'2 4.2
2018-May-14 16:30N 30°01' W 093°14'2 4.1
2018-May-14 16:00N 30°02' W 093°16'2 4.3
2018-May-14 15:30N 30°04' W 093°16'1 2.9
2018-May-14 15:00N 30°05' W 093°18'0 0.7
2018-May-14 14:30N 30°06' W 093°18'1 1.8
2018-May-14 14:00N 30°06' W 093°19'0 0.3
2018-May-14 13:30N 30°06' W 093°19'0 0.0
2018-May-14 12:55N 30°06' W 093°19'0 0.0
2018-May-14 12:29N 30°06' W 093°19'0 0.0
2018-May-14 12:00N 30°06' W 093°19'0 0.0
2018-May-14 11:30N 30°06' W 093°19'0 0.0
2018-May-14 11:00N 30°06' W 093°19'0 0.0
2018-May-14 10:27N 30°06' W 093°19'0 0.0
2018-May-14 10:00N 30°06' W 093°19'0 0.0
2018-May-14 09:30N 30°06' W 093°19'0 0.0
2018-May-14 09:00N 30°06' W 093°19'0 0.0
2018-May-14 08:30N 30°06' W 093°19'0 0.0
2018-May-14 08:00N 30°06' W 093°19'0 0.0
2018-May-14 07:30N 30°06' W 093°19'0 0.0
2018-May-14 07:00N 30°06' W 093°19'0 0.0
2018-May-14 06:30N 30°06' W 093°19'1 2.1
2018-May-14 06:00N 30°06' W 093°19'2 3.8
2018-May-14 05:30N 30°04' W 093°21'2 3.7
2018-May-14 05:00N 30°04' W 093°23'2 4.7
2018-May-14 04:30N 30°04' W 093°26'0 0.0
2018-May-14 04:00N 30°04' W 093°26'2 3.8
2018-May-14 03:30N 30°04' W 093°28'2 4.7
2018-May-14 03:00N 30°04' W 093°30'3 5.2
2018-May-14 02:30N 30°04' W 093°33'3 5.2
2018-May-14 02:00N 30°04' W 093°36'3 5.5
2018-May-14 01:30N 30°04' W 093°40'3 5.5
2018-May-14 01:00N 30°03' W 093°43'2 4.8
2018-May-14 00:30N 30°01' W 093°44'3 5.1
2018-May-14 00:00N 29°60' W 093°47'3 6.5
2018-May-13 23:30N 29°59' W 093°50'3 5.6
2018-May-13 23:00N 29°56' W 093°52'3 6.7
2018-May-13 22:30N 29°54' W 093°54'3 5.9
2018-May-13 22:00N 29°51' W 093°57'3 5.9
2018-May-13 21:30N 29°49' W 093°59'3 5.0
2018-May-13 21:00N 29°47' W 094°01'3 5.1
2018-May-13 20:30N 29°46' W 094°03'3 5.1
2018-May-13 20:00N 29°44' W 094°05'3 5.2
2018-May-13 19:30N 29°43' W 094°08'3 5.1
2018-May-13 19:00N 29°41' W 094°10'3 5.2
2018-May-13 18:29N 29°40' W 094°13'3 5.3
2018-May-13 18:00N 29°39' W 094°16'3 5.1
2018-May-13 17:30N 29°38' W 094°19'3 5.3
2018-May-13 17:00N 29°37' W 094°21'2 4.7
2018-May-13 16:30N 29°36' W 094°24'1 2.5
2018-May-13 15:57N 29°35' W 094°25'2 3.0
2018-May-13 15:26N 29°34' W 094°26'2 4.1
2018-May-13 15:00N 29°33' W 094°28'2 4.6
2018-May-13 14:30N 29°31' W 094°30'3 5.5
2018-May-13 13:58N 29°30' W 094°33'3 5.3
2018-May-13 13:19N 29°29' W 094°37'2 5.3
2018-May-13 12:55N 29°28' W 094°39'  

Dump ship's entire track history